EDT,Max TemperatureF,Mean TemperatureF,Min TemperatureF,Max Dew PointF,MeanDew PointF,Min DewpointF,Max Humidity, Mean Humidity, Min Humidity, Max Sea Level PressureIn, Mean Sea Level PressureIn, Min Sea Level PressureIn, Max VisibilityMiles, Mean VisibilityMiles, Min VisibilityMiles, Max Wind SpeedMPH, Mean Wind SpeedMPH, Max Gust SpeedMPH,PrecipitationIn, CloudCover, Events, WindDirDegrees
2013-5-1,81,74,69,70,68,66,94,85,64,30.05,30.01,29.97,10,10,8,14,7,,0.04,4,Rain,68
2013-5-2,73,70,68,70,67,65,94,91,87,29.99,29.92,29.85,10,7,1,15,7,21,0.67,8,Rain,46
2013-5-3,82,74,68,70,67,64,94,84,60,29.85,29.80,29.76,10,8,1,20,8,28,0.65,7,Rain,45
2013-5-4,82,76,69,70,67,66,94,82,60,29.81,29.73,29.70,10,9,2,15,8,28,0.02,7,Rain,9
2013-5-5,79,69,59,68,54,41,94,64,31,29.95,29.86,29.78,10,10,10,18,11,26,0.00,3,,286
2013-5-6,75,68,62,60,53,49,90,64,42,30.03,29.98,29.91,10,10,10,14,8,18,0.00,2,,269
2013-5-7,79,66,55,60,56,52,89,67,45,30.07,30.02,29.99,10,10,10,16,6,24,0.00,2,,257
2013-5-8,82,71,60,61,59,55,93,69,41,30.15,30.10,30.04,10,10,8,13,3,17,0.00,1,,274
2013-5-9,84,73,62,64,61,56,93,68,40,30.17,30.13,30.09,10,9,6,10,3,,0.00,1,,213
2013-5-10,90,77,64,70,65,62,93,65,39,30.17,30.08,30.02,10,10,7,10,4,,0.00,0,,190
2013-5-11,89,78,68,70,68,65,90,72,52,30.08,30.04,29.99,10,10,7,20,5,28,0.00,1,,244
2013-5-12,89,77,66,68,65,63,90,69,46,30.06,30.01,29.98,10,10,10,16,6,22,0.00,1,,267
2013-5-13,84,75,64,67,55,44,90,57,26,30.17,30.10,30.03,10,10,10,13,8,21,0.00,1,,343
2013-5-14,84,68,52,55,48,40,80,47,21,30.25,30.19,30.14,10,10,10,13,5,20,0.00,0,,60
2013-5-15,86,72,60,61,55,49,93,56,29,30.25,30.18,30.10,10,10,10,13,4,,0.00,0,,144
2013-5-16,86,76,69,63,60,55,81,60,36,30.16,30.10,30.04,10,10,10,13,7,,0.00,0,,162
2013-5-17,89,78,69,68,63,56,81,63,36,30.14,30.09,30.06,10,10,10,13,7,,0.00,0,,143
2013-5-18,91,82,72,72,67,56,87,68,32,30.14,30.09,30.02,10,10,10,13,6,,0.01,1,Rain-Thunderstorm,134
2013-5-19,91,80,71,72,70,63,89,79,55,30.12,30.07,30.00,10,8,0,28,9,48,1.91,4,Rain,129
2013-5-20,89,81,73,71,68,59,91,72,43,30.11,30.06,30.02,10,10,10,18,6,29,0.00,1,Rain,114
2013-5-21,84,78,71,72,69,65,94,81,56,30.06,30.02,29.97,10,10,9,13,6,18,0.00,2,,119
2013-5-22,88,80,73,72,70,65,94,79,49,30.00,29.97,29.93,10,10,7,14,5,,0.04,3,Rain,125
2013-5-23,93,81,71,73,70,63,100,78,45,30.02,29.99,29.93,10,8,0,14,4,,0.00,2,Fog,318
2013-5-24,95,82,71,72,67,59,94,68,32,30.12,30.03,29.99,10,8,4,12,5,17,0.00,2,,308
2013-5-25,89,78,68,67,61,54,93,59,36,30.22,30.17,30.11,10,10,9,14,7,21,0.00,0,,65
2013-5-26,88,76,66,60,56,49,79,52,28,30.24,30.20,30.16,10,10,10,13,6,18,0.00,0,,93
2013-5-27,89,76,64,65,60,56,87,59,35,30.21,30.18,30.12,10,10,10,14,7,21,0.00,0,,92
2013-5-28,91,78,66,70,66,63,90,68,45,30.18,30.14,30.09,10,10,10,15,8,22,0.00,3,,90
2013-5-29,87,80,73,73,71,68,93,78,53,30.15,30.12,30.09,10,9,2,21,9,29,0.15,3,Rain,108
2013-5-30,86,80,75,72,71,69,90,79,61,30.15,30.12,30.07,10,9,1,21,10,30,0.14,4,Rain,98
2013-5-31,87,78,73,74,70,68,87,74,59,30.14,30.10,30.06,10,10,10,16,10,25,0.01,3,,100